createdAt,value
2019-01-27T00:00:38.240Z,992.81
2019-01-27T00:01:38.189Z,992.79
2019-01-27T00:02:38.139Z,992.79
2019-01-27T00:03:38.089Z,992.84
2019-01-27T00:04:38.040Z,992.85
2019-01-27T00:05:37.990Z,992.80
2019-01-27T00:06:37.940Z,992.83
2019-01-27T00:07:37.890Z,992.79
2019-01-27T00:08:37.841Z,992.79
2019-01-27T00:09:37.792Z,992.80
2019-01-27T00:10:37.741Z,992.76
2019-01-27T00:11:37.693Z,992.79
2019-01-27T00:12:37.644Z,992.75
2019-01-27T00:13:37.641Z,992.79
2019-01-27T00:14:37.591Z,992.77
2019-01-27T00:15:37.491Z,992.79
2019-01-27T00:16:37.443Z,992.80
2019-01-27T00:17:37.393Z,992.75
2019-01-27T00:18:37.342Z,992.73
2019-01-27T00:19:37.292Z,992.69
2019-01-27T00:20:37.242Z,992.66
2019-01-27T00:21:37.192Z,992.69
2019-01-27T00:22:37.143Z,992.75
2019-01-27T00:23:37.093Z,992.67
2019-01-27T00:24:37.043Z,992.61
2019-01-27T00:25:36.991Z,992.68
2019-01-27T00:26:36.945Z,992.64
2019-01-27T00:27:36.894Z,992.64
2019-01-27T00:28:36.844Z,992.65
2019-01-27T00:29:36.794Z,992.62
2019-01-27T00:30:36.743Z,992.60
2019-01-27T00:31:36.694Z,992.55
2019-01-27T00:32:36.643Z,992.60
2019-01-27T00:33:36.596Z,992.54
2019-01-27T00:34:36.645Z,992.52
2019-01-27T00:35:36.494Z,992.50
2019-01-27T00:36:36.445Z,992.52
2019-01-27T00:37:36.393Z,992.45
2019-01-27T00:38:36.344Z,992.42
2019-01-27T00:39:36.295Z,992.42
2019-01-27T00:40:36.245Z,992.41
2019-01-27T00:41:36.194Z,992.38
2019-01-27T00:42:36.159Z,992.41
2019-01-27T00:43:36.095Z,992.41
2019-01-27T00:44:36.046Z,992.41
2019-01-27T00:45:35.996Z,992.42
2019-01-27T00:46:35.946Z,992.40
2019-01-27T00:47:35.898Z,992.40
2019-01-27T00:48:35.846Z,992.35
2019-01-27T00:49:35.796Z,992.38
2019-01-27T00:50:35.746Z,992.38
2019-01-27T00:51:35.696Z,992.30
2019-01-27T00:52:35.646Z,992.30
2019-01-27T00:53:35.596Z,992.30
2019-01-27T00:54:35.646Z,992.27
2019-01-27T00:55:35.496Z,992.24
2019-01-27T00:56:35.447Z,992.20
2019-01-27T00:57:35.396Z,992.17
2019-01-27T00:58:35.347Z,992.21
2019-01-27T00:59:35.297Z,992.15
2019-01-27T01:00:35.248Z,992.21
2019-01-27T01:01:35.197Z,992.19
2019-01-27T01:02:35.147Z,992.20
2019-01-27T01:03:35.098Z,992.21
2019-01-27T01:04:35.048Z,992.17
2019-01-27T01:05:34.999Z,992.22
2019-01-27T01:06:34.948Z,992.20
2019-01-27T01:07:34.898Z,992.21
2019-01-27T01:08:34.849Z,992.18
2019-01-27T01:09:34.798Z,992.18
2019-01-27T01:10:34.748Z,992.16
2019-01-27T01:11:34.699Z,992.09
2019-01-27T01:12:34.650Z,992.11
2019-01-27T01:13:34.600Z,992.10
2019-01-27T01:14:34.599Z,992.09
2019-01-27T01:15:34.499Z,992.05
2019-01-27T01:16:34.450Z,992.05
2019-01-27T01:17:34.399Z,992.00
2019-01-27T01:18:34.350Z,992.02
2019-01-27T01:19:34.300Z,992.02
2019-01-27T01:20:34.252Z,991.97
2019-01-27T01:21:34.200Z,991.94
2019-01-27T01:22:34.150Z,991.92
2019-01-27T01:23:34.101Z,991.94
2019-01-27T01:24:34.051Z,991.90
2019-01-27T01:25:33.999Z,991.94
2019-01-27T01:26:33.952Z,991.88
2019-01-27T01:27:33.903Z,991.90
2019-01-27T01:28:33.852Z,991.91
2019-01-27T01:29:33.803Z,991.90
2019-01-27T01:30:33.751Z,991.89
2019-01-27T01:31:33.701Z,991.87
2019-01-27T01:32:33.651Z,991.82
2019-01-27T01:33:33.602Z,991.80
2019-01-27T01:34:33.919Z,991.85
2019-01-27T01:35:33.502Z,991.80
2019-01-27T01:36:33.459Z,991.76
2019-01-27T01:37:33.402Z,991.74
2019-01-27T01:38:33.351Z,991.70
2019-01-27T01:39:33.303Z,991.67
2019-01-27T01:40:33.253Z,991.65
2019-01-27T01:41:33.202Z,991.63
2019-01-27T01:42:33.153Z,991.59
2019-01-27T01:43:33.104Z,991.57
2019-01-27T01:44:33.054Z,991.54
2019-01-27T01:45:33.003Z,991.53
2019-01-27T01:46:32.953Z,991.47
2019-01-27T01:47:32.904Z,991.42
2019-01-27T01:48:32.854Z,991.39
2019-01-27T01:49:32.803Z,991.35
2019-01-27T01:50:32.754Z,991.34
2019-01-27T01:51:32.704Z,991.32
2019-01-27T01:52:32.655Z,991.31
2019-01-27T01:53:32.604Z,991.29
2019-01-27T01:54:32.604Z,991.29
2019-01-27T01:55:32.505Z,991.27
2019-01-27T01:56:32.455Z,991.22
2019-01-27T01:57:32.405Z,991.25
2019-01-27T01:58:32.355Z,991.22
2019-01-27T01:59:32.305Z,991.19
2019-01-27T02:00:32.257Z,991.15
2019-01-27T02:01:32.205Z,991.16
2019-01-27T02:02:32.156Z,991.14
2019-01-27T02:03:32.106Z,991.14
2019-01-27T02:04:32.056Z,991.09
2019-01-27T02:05:32.021Z,991.04
2019-01-27T02:06:31.956Z,991.08
2019-01-27T02:07:31.907Z,991.05
2019-01-27T02:08:31.857Z,990.99
2019-01-27T02:09:31.806Z,991.03
2019-01-27T02:10:31.759Z,991.03
2019-01-27T02:11:31.707Z,991.03
2019-01-27T02:12:31.658Z,991.02
2019-01-27T02:13:31.607Z,990.97
2019-01-27T02:14:31.557Z,990.94
2019-01-27T02:15:31.558Z,990.88
2019-01-27T02:16:31.457Z,990.87
2019-01-27T02:17:31.407Z,990.84
2019-01-27T02:18:31.358Z,990.87
2019-01-27T02:19:31.318Z,990.83
2019-01-27T02:20:31.258Z,990.80
2019-01-27T02:21:31.210Z,990.78
2019-01-27T02:22:31.158Z,990.75
2019-01-27T02:23:31.111Z,990.76
2019-01-27T02:24:31.059Z,990.74
2019-01-27T02:25:31.008Z,990.72
2019-01-27T02:26:30.959Z,990.71
2019-01-27T02:27:30.910Z,990.69
2019-01-27T02:28:30.863Z,990.71
2019-01-27T02:29:30.809Z,990.64
2019-01-27T02:30:30.759Z,990.62
2019-01-27T02:31:30.710Z,990.58
2019-01-27T02:32:30.664Z,990.56
2019-01-27T02:33:30.610Z,990.59
2019-01-27T02:34:30.614Z,990.59
2019-01-27T02:35:30.511Z,990.56
2019-01-27T02:36:30.466Z,990.56
2019-01-27T02:37:30.410Z,990.53
2019-01-27T02:38:30.362Z,990.54
2019-01-27T02:39:30.311Z,990.48
2019-01-27T02:40:30.267Z,990.44
2019-01-27T02:41:30.213Z,990.43
2019-01-27T02:42:30.161Z,990.36
2019-01-27T02:43:30.113Z,990.35
2019-01-27T02:44:30.071Z,990.30
2019-01-27T02:45:30.012Z,990.30
2019-01-27T02:46:29.962Z,990.25
2019-01-27T02:47:29.912Z,990.24
2019-01-27T02:48:29.862Z,990.24
2019-01-27T02:49:29.812Z,990.24
2019-01-27T02:50:29.762Z,990.21
2019-01-27T02:51:29.716Z,990.17
2019-01-27T02:52:29.663Z,990.13
2019-01-27T02:53:29.613Z,990.10
2019-01-27T02:54:29.620Z,990.07
2019-01-27T02:55:29.513Z,990.04
2019-01-27T02:56:29.462Z,990.04
2019-01-27T02:57:29.413Z,990.03
2019-01-27T02:58:29.688Z,990.00
2019-01-27T02:59:29.314Z,989.98
2019-01-27T03:00:29.263Z,989.97
2019-01-27T03:01:29.215Z,989.95
2019-01-27T03:02:29.163Z,989.91
2019-01-27T03:03:29.117Z,989.86
2019-01-27T03:04:29.065Z,989.84
2019-01-27T03:05:29.015Z,989.83
2019-01-27T03:06:28.965Z,989.81
2019-01-27T03:07:28.915Z,989.81
2019-01-27T03:08:28.867Z,989.76
2019-01-27T03:09:28.817Z,989.74
2019-01-27T03:10:28.765Z,989.70
2019-01-27T03:11:28.715Z,989.71
2019-01-27T03:12:28.669Z,989.72
2019-01-27T03:13:28.616Z,989.73
2019-01-27T03:14:28.566Z,989.68
2019-01-27T03:15:28.518Z,989.64
2019-01-27T03:16:28.467Z,989.66
2019-01-27T03:17:28.416Z,989.62
2019-01-27T03:18:28.366Z,989.66
2019-01-27T03:19:28.319Z,989.66
2019-01-27T03:20:28.267Z,989.61
2019-01-27T03:21:28.217Z,989.63
2019-01-27T03:22:28.166Z,989.62
2019-01-27T03:23:28.121Z,989.59
2019-01-27T03:24:28.069Z,989.59
2019-01-27T03:25:28.017Z,989.59
2019-01-27T03:26:27.975Z,989.56
2019-01-27T03:27:27.918Z,989.53
2019-01-27T03:28:27.867Z,989.53
2019-01-27T03:29:27.817Z,989.55
2019-01-27T03:30:27.769Z,989.57
2019-01-27T03:31:27.721Z,989.55
2019-01-27T03:32:27.671Z,989.55
2019-01-27T03:33:27.618Z,989.52
2019-01-27T03:34:27.571Z,989.49
2019-01-27T03:35:27.625Z,989.47
2019-01-27T03:36:27.468Z,989.46
2019-01-27T03:37:27.423Z,989.51
2019-01-27T03:38:27.369Z,989.49
2019-01-27T03:39:27.319Z,989.52
2019-01-27T03:40:27.269Z,989.48
2019-01-27T03:41:27.219Z,989.49
2019-01-27T03:42:27.170Z,989.46
2019-01-27T03:43:27.120Z,989.44
2019-01-27T03:44:27.070Z,989.41
2019-01-27T03:45:27.020Z,989.41
2019-01-27T03:46:26.971Z,989.37
2019-01-27T03:47:26.923Z,989.30
2019-01-27T03:48:26.871Z,989.29
2019-01-27T03:49:26.821Z,989.35
2019-01-27T03:50:26.771Z,989.29
2019-01-27T03:51:26.730Z,989.29
2019-01-27T03:52:26.671Z,989.26
2019-01-27T03:53:26.672Z,989.21
2019-01-27T03:54:26.621Z,989.17
2019-01-27T03:55:26.520Z,989.15
2019-01-27T03:56:26.478Z,989.18
2019-01-27T03:57:26.421Z,989.16
2019-01-27T03:58:26.372Z,989.14
2019-01-27T03:59:26.330Z,989.09
2019-01-27T04:00:26.272Z,989.07
2019-01-27T04:01:26.222Z,989.02
2019-01-27T04:02:26.176Z,989.01
2019-01-27T04:03:26.122Z,988.93
2019-01-27T04:04:26.074Z,988.97
2019-01-27T04:05:26.036Z,988.98
2019-01-27T04:06:25.973Z,988.95
2019-01-27T04:07:25.927Z,988.92
2019-01-27T04:08:25.875Z,988.91
2019-01-27T04:09:25.823Z,988.90
2019-01-27T04:10:25.773Z,988.88
2019-01-27T04:11:25.724Z,988.86
2019-01-27T04:12:25.678Z,988.86
2019-01-27T04:13:25.627Z,988.83
2019-01-27T04:14:25.597Z,988.78
2019-01-27T04:15:25.524Z,988.80
2019-01-27T04:16:25.479Z,988.82
2019-01-27T04:17:25.424Z,988.72
2019-01-27T04:18:25.374Z,988.76
2019-01-27T04:19:25.376Z,988.71
2019-01-27T04:20:25.275Z,988.71
2019-01-27T04:21:25.224Z,988.72
2019-01-27T04:22:25.175Z,988.73
2019-01-27T04:23:25.125Z,988.69
2019-01-27T04:24:25.112Z,988.64
2019-01-27T04:25:25.029Z,988.56
2019-01-27T04:26:24.975Z,988.56
2019-01-27T04:27:24.926Z,988.59
2019-01-27T04:28:24.876Z,988.64
2019-01-27T04:29:24.826Z,988.59
2019-01-27T04:30:24.774Z,988.56
2019-01-27T04:31:24.726Z,988.58
2019-01-27T04:32:24.676Z,988.59
2019-01-27T04:33:24.635Z,988.54
2019-01-27T04:34:24.585Z,988.53
2019-01-27T04:35:24.578Z,988.51
2019-01-27T04:36:24.479Z,988.51
2019-01-27T04:37:24.427Z,988.52
2019-01-27T04:38:24.416Z,988.52
2019-01-27T04:39:24.327Z,988.48
2019-01-27T04:40:24.277Z,988.52
2019-01-27T04:41:24.227Z,988.50
2019-01-27T04:42:24.178Z,988.45
2019-01-27T04:43:24.127Z,988.43
2019-01-27T04:44:24.078Z,988.44
2019-01-27T04:45:24.027Z,988.40
2019-01-27T04:46:23.977Z,988.42
2019-01-27T04:47:23.978Z,988.38
2019-01-27T04:48:23.878Z,988.36
2019-01-27T04:49:23.827Z,988.33
2019-01-27T04:50:23.780Z,988.31
2019-01-27T04:51:23.728Z,988.32
2019-01-27T04:52:23.679Z,988.31
2019-01-27T04:53:23.628Z,988.31
2019-01-27T04:54:23.627Z,988.29
2019-01-27T04:55:23.528Z,988.28
2019-01-27T04:56:23.478Z,988.27
2019-01-27T04:57:23.428Z,988.22
2019-01-27T04:58:23.379Z,988.20
2019-01-27T04:59:23.329Z,988.22
2019-01-27T05:00:23.285Z,988.23
2019-01-27T05:01:23.229Z,988.24
2019-01-27T05:02:23.179Z,988.15
2019-01-27T05:03:23.137Z,988.12
2019-01-27T05:04:23.080Z,988.15
2019-01-27T05:05:23.029Z,988.15
2019-01-27T05:06:22.980Z,988.17
2019-01-27T05:07:22.931Z,988.13
2019-01-27T05:08:22.881Z,988.13
2019-01-27T05:09:22.830Z,988.12
2019-01-27T05:10:22.784Z,988.08
2019-01-27T05:11:22.731Z,988.09
2019-01-27T05:12:22.683Z,988.07
2019-01-27T05:13:22.631Z,988.08
2019-01-27T05:14:22.580Z,988.07
2019-01-27T05:15:22.583Z,987.96
2019-01-27T05:16:22.482Z,987.99
2019-01-27T05:17:22.431Z,987.93
2019-01-27T05:18:22.381Z,987.94
2019-01-27T05:19:22.337Z,987.91
2019-01-27T05:20:22.298Z,987.87
2019-01-27T05:21:22.235Z,987.84
2019-01-27T05:22:22.190Z,987.78
2019-01-27T05:23:22.134Z,987.84
2019-01-27T05:24:22.089Z,987.84
2019-01-27T05:25:22.031Z,987.83
2019-01-27T05:26:21.984Z,987.84
2019-01-27T05:27:21.933Z,987.83
2019-01-27T05:28:21.885Z,987.80
2019-01-27T05:29:21.833Z,987.84
2019-01-27T05:30:21.783Z,987.80
2019-01-27T05:31:21.735Z,987.81
2019-01-27T05:32:21.684Z,987.82
2019-01-27T05:33:21.634Z,987.77
2019-01-27T05:34:21.634Z,987.81
2019-01-27T05:35:21.590Z,987.72
2019-01-27T05:36:21.487Z,987.75
2019-01-27T05:37:21.435Z,987.69
2019-01-27T05:38:21.387Z,987.68
2019-01-27T05:39:21.335Z,987.63
2019-01-27T05:40:21.286Z,987.63
2019-01-27T05:41:21.235Z,987.62
2019-01-27T05:42:21.187Z,987.63
2019-01-27T05:43:21.136Z,987.57
2019-01-27T05:44:21.086Z,987.52
2019-01-27T05:45:21.035Z,987.55
2019-01-27T05:46:20.987Z,987.53
2019-01-27T05:47:20.936Z,987.51
2019-01-27T05:48:20.888Z,987.54
2019-01-27T05:49:20.835Z,987.53
2019-01-27T05:50:20.787Z,987.54
2019-01-27T05:51:20.739Z,987.50
2019-01-27T05:52:20.687Z,987.50
2019-01-27T05:53:20.637Z,987.50
2019-01-27T05:54:20.592Z,987.51
2019-01-27T05:55:20.591Z,987.50
2019-01-27T05:56:20.488Z,987.46
2019-01-27T05:57:20.440Z,987.47
2019-01-27T05:58:20.388Z,987.51
2019-01-27T05:59:20.338Z,987.51
2019-01-27T06:00:20.288Z,987.46
2019-01-27T06:01:20.238Z,987.43
2019-01-27T06:02:20.188Z,987.43
2019-01-27T06:03:20.139Z,987.40
2019-01-27T06:04:20.089Z,987.40
2019-01-27T06:05:20.043Z,987.38
2019-01-27T06:06:19.989Z,987.38
2019-01-27T06:07:19.940Z,987.42
2019-01-27T06:08:19.897Z,987.42
2019-01-27T06:09:19.841Z,987.37
2019-01-27T06:10:19.790Z,987.39
2019-01-27T06:11:19.740Z,987.35
2019-01-27T06:12:19.690Z,987.34
2019-01-27T06:13:19.639Z,987.31
2019-01-27T06:14:19.589Z,987.31
2019-01-27T06:15:19.540Z,987.27
2019-01-27T06:16:19.491Z,987.27
2019-01-27T06:17:19.442Z,987.18
2019-01-27T06:18:19.390Z,987.13
2019-01-27T06:19:19.341Z,987.05
2019-01-27T06:20:19.293Z,987.04
2019-01-27T06:21:19.267Z,987.07
2019-01-27T06:22:19.190Z,987.11
2019-01-27T06:23:19.142Z,987.12
2019-01-27T06:24:19.143Z,987.11
2019-01-27T06:25:19.068Z,987.13
2019-01-27T06:26:18.991Z,987.05
2019-01-27T06:27:18.948Z,987.05
2019-01-27T06:28:18.892Z,987.01
2019-01-27T06:29:18.842Z,986.96
2019-01-27T06:30:18.794Z,986.97
2019-01-27T06:31:18.742Z,986.98
2019-01-27T06:32:18.693Z,986.99
2019-01-27T06:33:18.643Z,987.01
2019-01-27T06:34:18.593Z,986.95
2019-01-27T06:35:18.543Z,986.93
2019-01-27T06:36:18.544Z,986.92
2019-01-27T06:37:24.668Z,986.92
2019-01-27T06:38:18.394Z,986.93
2019-01-27T06:39:18.343Z,986.95
2019-01-27T06:40:18.294Z,986.91
2019-01-27T06:41:18.244Z,986.92
2019-01-27T06:42:18.194Z,986.89
2019-01-27T06:43:18.145Z,986.92
2019-01-27T06:44:18.097Z,986.90
2019-01-27T06:45:18.045Z,986.88
2019-01-27T06:46:17.995Z,986.88
2019-01-27T06:47:17.946Z,986.85
2019-01-27T06:48:17.897Z,986.86
2019-01-27T06:49:17.845Z,986.86
2019-01-27T06:50:17.798Z,986.84
2019-01-27T06:51:17.746Z,986.83
2019-01-27T06:52:17.697Z,986.83
2019-01-27T06:53:17.698Z,986.81
2019-01-27T06:54:17.705Z,986.80
2019-01-27T06:55:17.697Z,986.80
2019-01-27T06:56:17.498Z,986.78
2019-01-27T06:57:17.445Z,986.77
2019-01-27T06:58:17.397Z,986.73
2019-01-27T06:59:17.347Z,986.77
2019-01-27T07:00:17.300Z,986.75
2019-01-27T07:01:17.246Z,986.74
2019-01-27T07:02:17.514Z,986.75
2019-01-27T07:03:17.147Z,986.71
2019-01-27T07:04:17.098Z,986.69
2019-01-27T07:05:17.047Z,986.68
2019-01-27T07:06:16.999Z,986.69
2019-01-27T07:07:16.948Z,986.72
2019-01-27T07:08:16.899Z,986.73
2019-01-27T07:09:16.847Z,986.70
2019-01-27T07:10:16.800Z,986.65
2019-01-27T07:11:16.749Z,986.62
2019-01-27T07:12:16.699Z,986.62
2019-01-27T07:13:16.701Z,986.51
2019-01-27T07:14:16.754Z,986.57
2019-01-27T07:15:16.553Z,986.56
2019-01-27T07:16:16.505Z,986.61
2019-01-27T07:17:16.449Z,986.58
2019-01-27T07:18:16.400Z,986.58
2019-01-27T07:19:16.351Z,986.58
2019-01-27T07:20:16.301Z,986.55
2019-01-27T07:21:16.254Z,986.57
2019-01-27T07:22:16.201Z,986.52
2019-01-27T07:23:16.151Z,986.54
2019-01-27T07:24:16.101Z,986.57
2019-01-27T07:25:16.051Z,986.50
2019-01-27T07:26:16.001Z,986.55
2019-01-27T07:27:15.952Z,986.52
2019-01-27T07:28:15.902Z,986.52
2019-01-27T07:29:15.852Z,986.49
2019-01-27T07:30:15.811Z,986.52
2019-01-27T07:31:15.752Z,986.50
2019-01-27T07:32:15.753Z,986.48
2019-01-27T07:33:15.652Z,986.47
2019-01-27T07:34:15.603Z,986.43
2019-01-27T07:35:15.553Z,986.43
2019-01-27T07:36:15.503Z,986.41
2019-01-27T07:37:15.453Z,986.42
2019-01-27T07:38:15.403Z,986.38
2019-01-27T07:39:15.354Z,986.36
2019-01-27T07:40:15.304Z,986.34
2019-01-27T07:41:15.254Z,986.34
2019-01-27T07:42:15.204Z,986.32
2019-01-27T07:43:15.154Z,986.34
2019-01-27T07:44:15.105Z,986.31
2019-01-27T07:45:15.053Z,986.36
2019-01-27T07:46:15.012Z,986.36
2019-01-27T07:47:14.955Z,986.33
2019-01-27T07:48:14.905Z,986.34
2019-01-27T07:49:14.857Z,986.35
2019-01-27T07:50:14.805Z,986.34
2019-01-27T07:51:14.756Z,986.28
2019-01-27T07:52:14.706Z,986.30
2019-01-27T07:53:14.655Z,986.28
2019-01-27T07:54:14.608Z,986.31
2019-01-27T07:55:14.655Z,986.21
2019-01-27T07:56:14.507Z,986.22
2019-01-27T07:57:14.458Z,986.21
2019-01-27T07:58:14.406Z,986.21
2019-01-27T07:59:14.356Z,986.17
2019-01-27T08:00:14.308Z,986.17
2019-01-27T08:01:14.257Z,986.16
2019-01-27T08:02:14.208Z,986.10
2019-01-27T08:03:14.157Z,986.12
2019-01-27T08:04:14.108Z,986.12
2019-01-27T08:05:14.058Z,986.08
2019-01-27T08:06:14.009Z,986.08
2019-01-27T08:07:13.959Z,986.11
2019-01-27T08:08:13.912Z,986.12
2019-01-27T08:09:13.899Z,986.14
2019-01-27T08:10:13.810Z,986.11
2019-01-27T08:11:13.760Z,986.16
2019-01-27T08:12:13.710Z,986.11
2019-01-27T08:13:13.659Z,986.09
2019-01-27T08:14:13.609Z,986.05
2019-01-27T08:15:13.610Z,986.11
2019-01-27T08:16:13.511Z,986.04
2019-01-27T08:17:13.460Z,986.05
2019-01-27T08:18:13.411Z,986.03
2019-01-27T08:19:13.361Z,986.04
2019-01-27T08:20:13.311Z,986.04
2019-01-27T08:21:13.261Z,986.02
2019-01-27T08:22:13.212Z,986.04
2019-01-27T08:23:13.826Z,986.01
2019-01-27T08:24:13.112Z,986.02
2019-01-27T08:25:13.062Z,985.98
2019-01-27T08:26:13.012Z,985.88
2019-01-27T08:27:12.961Z,985.91
2019-01-27T08:28:12.913Z,985.91
2019-01-27T08:29:12.862Z,985.92
2019-01-27T08:30:12.813Z,985.86
2019-01-27T08:31:12.763Z,985.88
2019-01-27T08:32:12.714Z,985.87
2019-01-27T08:33:12.665Z,985.89
2019-01-27T08:34:12.614Z,985.88
2019-01-27T08:35:12.614Z,985.86
2019-01-27T08:36:12.565Z,985.81
2019-01-27T08:37:12.465Z,985.82
2019-01-27T08:38:12.414Z,985.82
2019-01-27T08:39:12.366Z,985.81
2019-01-27T08:40:12.319Z,985.82
2019-01-27T08:41:12.267Z,985.84
2019-01-27T08:42:12.215Z,985.80
2019-01-27T08:43:12.166Z,985.74
2019-01-27T08:44:12.117Z,985.80
2019-01-27T08:45:12.067Z,985.78
2019-01-27T08:46:12.017Z,985.80
2019-01-27T08:47:11.967Z,985.81
2019-01-27T08:48:11.918Z,985.79
2019-01-27T08:49:11.867Z,985.75
2019-01-27T08:50:11.818Z,985.77
2019-01-27T08:51:11.769Z,985.77
2019-01-27T08:52:11.720Z,985.79
2019-01-27T08:53:11.676Z,985.78
2019-01-27T08:54:11.672Z,985.79
2019-01-27T08:55:11.620Z,985.80
2019-01-27T08:56:11.520Z,985.77
2019-01-27T08:57:11.470Z,985.82
2019-01-27T08:58:11.420Z,985.73
2019-01-27T08:59:11.371Z,985.76
2019-01-27T09:00:11.324Z,985.72
2019-01-27T09:01:11.321Z,985.72
2019-01-27T09:02:11.221Z,985.68
2019-01-27T09:03:11.187Z,985.74
2019-01-27T09:04:11.121Z,985.73
2019-01-27T09:05:11.077Z,985.69
2019-01-27T09:06:11.022Z,985.62
2019-01-27T09:07:10.973Z,985.63
2019-01-27T09:08:10.924Z,985.62
2019-01-27T09:09:10.872Z,985.63
2019-01-27T09:10:10.824Z,985.61
2019-01-27T09:11:10.775Z,985.60
2019-01-27T09:12:10.725Z,985.58
2019-01-27T09:13:11.352Z,985.56
2019-01-27T09:14:10.626Z,985.56
2019-01-27T09:15:10.625Z,985.53
2019-01-27T09:16:10.575Z,985.51
2019-01-27T09:17:10.475Z,985.45
2019-01-27T09:18:10.426Z,985.44
2019-01-27T09:19:10.378Z,985.44
2019-01-27T09:20:10.327Z,985.44
2019-01-27T09:21:10.277Z,985.41
2019-01-27T09:22:10.228Z,985.42
2019-01-27T09:23:10.178Z,985.45
2019-01-27T09:24:10.129Z,985.39
2019-01-27T09:25:10.078Z,985.41
2019-01-27T09:26:10.032Z,985.42
2019-01-27T09:27:09.978Z,985.36
2019-01-27T09:28:09.930Z,985.35
2019-01-27T09:29:09.882Z,985.36
2019-01-27T09:30:09.831Z,985.34
2019-01-27T09:31:09.783Z,985.36
2019-01-27T09:32:09.732Z,985.36
2019-01-27T09:33:09.682Z,985.36
2019-01-27T09:34:13.334Z,985.34
2019-01-27T09:35:09.583Z,985.33
2019-01-27T09:36:09.635Z,985.33
2019-01-27T09:37:09.483Z,985.31
2019-01-27T09:38:09.435Z,985.30
2019-01-27T09:39:09.385Z,985.31
2019-01-27T09:40:09.336Z,985.33
2019-01-27T09:41:09.285Z,985.30
2019-01-27T09:42:09.236Z,985.23
2019-01-27T09:43:09.188Z,985.24
2019-01-27T09:44:09.138Z,985.26
2019-01-27T09:45:09.088Z,985.25
2019-01-27T09:46:11.544Z,985.21
2019-01-27T09:47:08.989Z,985.22
2019-01-27T09:48:08.940Z,985.21
2019-01-27T09:49:08.889Z,985.18
2019-01-27T09:50:08.841Z,985.14
2019-01-27T09:51:08.791Z,985.19
2019-01-27T09:52:08.746Z,985.22
2019-01-27T09:53:08.691Z,985.18
2019-01-27T09:54:08.642Z,985.17
2019-01-27T09:55:08.593Z,985.19
2019-01-27T09:56:08.594Z,985.16
2019-01-27T09:57:08.494Z,985.17
2019-01-27T09:58:08.450Z,985.11
2019-01-27T09:59:08.395Z,985.14
2019-01-27T10:00:08.344Z,985.10
2019-01-27T10:01:09.879Z,985.11
2019-01-27T10:02:08.255Z,985.08
2019-01-27T10:03:08.196Z,985.12
2019-01-27T10:04:08.147Z,985.13
2019-01-27T10:05:08.097Z,985.10
2019-01-27T10:06:08.052Z,985.08
2019-01-27T10:07:07.998Z,985.04
2019-01-27T10:08:07.949Z,985.02
2019-01-27T10:09:07.899Z,985.04
2019-01-27T10:10:07.849Z,985.04
2019-01-27T10:11:07.800Z,985.04
2019-01-27T10:12:07.750Z,985.00
2019-01-27T10:13:07.701Z,985.03
2019-01-27T10:14:07.655Z,984.99
2019-01-27T10:15:07.609Z,984.98
2019-01-27T10:16:07.552Z,984.99
2019-01-27T10:17:07.502Z,985.00
2019-01-27T10:18:07.454Z,984.95
2019-01-27T10:19:07.403Z,984.99
2019-01-27T10:20:07.361Z,984.99
2019-01-27T10:21:07.303Z,984.98
2019-01-27T10:22:07.254Z,984.94
2019-01-27T10:23:07.204Z,984.97
2019-01-27T10:24:07.155Z,984.95
2019-01-27T10:25:07.104Z,984.89
2019-01-27T10:26:07.056Z,984.90
2019-01-27T10:27:07.013Z,984.83
2019-01-27T10:28:06.957Z,984.85
2019-01-27T10:29:06.907Z,984.81
2019-01-27T10:30:06.857Z,984.81
2019-01-27T10:31:06.808Z,984.79
2019-01-27T10:32:06.759Z,984.79
2019-01-27T10:33:06.709Z,984.78
2019-01-27T10:34:06.663Z,984.75
2019-01-27T10:35:06.611Z,984.76
2019-01-27T10:36:06.611Z,984.76
2019-01-27T10:37:11.983Z,984.69
2019-01-27T10:38:06.462Z,984.74
2019-01-27T10:39:06.412Z,984.74
2019-01-27T10:40:09.184Z,984.74
2019-01-27T10:41:06.313Z,984.72
2019-01-27T10:42:06.263Z,984.70
2019-01-27T10:43:06.215Z,984.74
2019-01-27T10:44:06.164Z,984.75
2019-01-27T10:45:06.115Z,984.72
2019-01-27T10:46:06.066Z,984.66
2019-01-27T10:47:06.016Z,984.66
2019-01-27T10:48:05.970Z,984.64
2019-01-27T10:49:05.917Z,984.65
2019-01-27T10:50:05.868Z,984.61
2019-01-27T10:51:05.818Z,984.62
2019-01-27T10:52:05.770Z,984.60
2019-01-27T10:53:05.721Z,984.60
2019-01-27T10:54:05.670Z,984.61
2019-01-27T10:55:05.620Z,984.61
2019-01-27T10:56:05.572Z,984.56
2019-01-27T10:57:05.520Z,984.56
2019-01-27T10:58:05.471Z,984.54
2019-01-27T10:59:05.422Z,984.55
2019-01-27T11:00:05.373Z,984.50
2019-01-27T11:01:05.322Z,984.46
2019-01-27T11:02:05.272Z,984.43
2019-01-27T11:03:05.224Z,984.42
2019-01-27T11:04:05.175Z,984.44
2019-01-27T11:05:05.124Z,984.41
2019-01-27T11:06:05.079Z,984.32
2019-01-27T11:07:05.026Z,984.32
2019-01-27T11:08:05.012Z,984.32
2019-01-27T11:09:04.926Z,984.30
2019-01-27T11:10:04.882Z,984.33
2019-01-27T11:11:04.827Z,984.35
2019-01-27T11:12:04.778Z,984.36
2019-01-27T11:13:04.730Z,984.36
2019-01-27T11:14:04.678Z,984.36
2019-01-27T11:15:04.629Z,984.32
2019-01-27T11:16:04.587Z,984.33
2019-01-27T11:17:04.530Z,984.39
2019-01-27T11:18:04.480Z,984.34
2019-01-27T11:19:04.451Z,984.32
2019-01-27T11:20:04.381Z,984.32
2019-01-27T11:21:04.331Z,984.29
2019-01-27T11:22:04.293Z,984.33
2019-01-27T11:23:04.231Z,984.26
2019-01-27T11:24:04.183Z,984.25
2019-01-27T11:25:04.133Z,984.20
2019-01-27T11:26:04.083Z,984.19
2019-01-27T11:27:04.034Z,984.20
2019-01-27T11:28:03.992Z,984.16
2019-01-27T11:29:03.937Z,984.08
2019-01-27T11:30:03.885Z,984.11
2019-01-27T11:31:03.835Z,984.11
2019-01-27T11:32:03.787Z,984.07
2019-01-27T11:33:03.738Z,984.11
2019-01-27T11:34:03.685Z,984.06
2019-01-27T11:35:03.638Z,984.00
2019-01-27T11:36:03.638Z,983.99
2019-01-27T11:37:03.537Z,983.98
2019-01-27T11:38:03.491Z,983.96
2019-01-27T11:39:03.439Z,983.96
2019-01-27T11:40:03.394Z,983.88
2019-01-27T11:41:03.339Z,983.88
2019-01-27T11:42:03.290Z,983.87
2019-01-27T11:43:03.240Z,983.86
2019-01-27T11:44:03.191Z,983.88
2019-01-27T11:45:03.141Z,983.84
2019-01-27T11:46:03.091Z,983.85
2019-01-27T11:47:03.043Z,983.80
2019-01-27T11:48:03.043Z,983.80
2019-01-27T11:49:02.942Z,983.75
2019-01-27T11:50:02.893Z,983.74
2019-01-27T11:51:02.843Z,983.74
2019-01-27T11:52:02.799Z,983.76
2019-01-27T11:53:02.745Z,983.71
2019-01-27T11:54:02.695Z,983.72
2019-01-27T11:55:02.645Z,983.72
2019-01-27T11:56:02.596Z,983.78
2019-01-27T11:57:02.546Z,983.77
2019-01-27T11:58:02.497Z,983.71
2019-01-27T11:59:02.446Z,983.75
2019-01-27T12:00:02.397Z,983.75
2019-01-27T12:01:02.348Z,983.68
2019-01-27T12:02:02.299Z,983.65
2019-01-27T12:03:02.251Z,983.65
2019-01-27T12:04:02.200Z,983.62
2019-01-27T12:05:02.151Z,983.57
2019-01-27T12:06:02.101Z,983.58
2019-01-27T12:07:02.052Z,983.59
2019-01-27T12:08:02.004Z,983.59
2019-01-27T12:09:01.952Z,983.67
2019-01-27T12:10:01.902Z,983.63
2019-01-27T12:11:01.853Z,983.57
2019-01-27T12:12:01.804Z,983.53
2019-01-27T12:13:01.753Z,983.48
2019-01-27T12:14:01.704Z,983.51
2019-01-27T12:15:01.673Z,983.49
2019-01-27T12:16:01.604Z,983.47
2019-01-27T12:17:01.605Z,983.47
2019-01-27T12:18:01.506Z,983.47
2019-01-27T12:19:01.455Z,983.52
2019-01-27T12:20:01.409Z,983.54
2019-01-27T12:21:01.357Z,983.52
2019-01-27T12:22:01.314Z,983.50
2019-01-27T12:23:01.258Z,983.52
2019-01-27T12:24:01.208Z,983.58
2019-01-27T12:25:01.157Z,983.50
2019-01-27T12:26:01.113Z,983.49
2019-01-27T12:27:01.059Z,983.44
2019-01-27T12:28:01.009Z,983.48